sensor_id;sensor_type;location;lat;lon;timestamp;P1;durP1;ratioP1;P2;durP2;ratioP2
47273;SDS011;33007;49.082;19.306;2022-10-22T00:01:53;17.80;;;9.98;;
47273;SDS011;33007;49.082;19.306;2022-10-22T00:04:19;14.50;;;10.85;;
47273;SDS011;33007;49.082;19.306;2022-10-22T00:06:45;16.10;;;10.85;;
47273;SDS011;33007;49.082;19.306;2022-10-22T00:09:11;15.05;;;10.10;;
47273;SDS011;33007;49.082;19.306;2022-10-22T00:11:38;19.13;;;10.00;;
47273;SDS011;33007;49.082;19.306;2022-10-22T00:14:04;17.05;;;10.88;;
47273;SDS011;33007;49.082;19.306;2022-10-22T00:16:30;15.90;;;10.65;;
47273;SDS011;33007;49.082;19.306;2022-10-22T00:18:56;17.10;;;10.27;;
47273;SDS011;33007;49.082;19.306;2022-10-22T00:21:21;20.20;;;10.60;;
47273;SDS011;33007;49.082;19.306;2022-10-22T00:23:47;15.18;;;10.30;;
47273;SDS011;33007;49.082;19.306;2022-10-22T00:26:13;14.63;;;9.88;;
47273;SDS011;33007;49.082;19.306;2022-10-22T00:28:38;18.33;;;10.55;;
47273;SDS011;33007;49.082;19.306;2022-10-22T00:31:04;15.27;;;9.90;;
47273;SDS011;33007;49.082;19.306;2022-10-22T00:33:30;16.67;;;10.40;;
47273;SDS011;33007;49.082;19.306;2022-10-22T00:35:56;13.60;;;10.00;;
47273;SDS011;33007;49.082;19.306;2022-10-22T00:38:22;18.25;;;11.07;;
47273;SDS011;33007;49.082;19.306;2022-10-22T00:40:48;18.85;;;10.98;;
47273;SDS011;33007;49.082;19.306;2022-10-22T00:43:15;17.45;;;10.65;;
47273;SDS011;33007;49.082;19.306;2022-10-22T00:45:42;27.23;;;11.27;;
47273;SDS011;33007;49.082;19.306;2022-10-22T00:48:14;16.85;;;10.10;;
47273;SDS011;33007;49.082;19.306;2022-10-22T00:50:47;66.18;;;13.13;;
47273;SDS011;33007;49.082;19.306;2022-10-22T00:53:20;17.70;;;11.25;;
47273;SDS011;33007;49.082;19.306;2022-10-22T00:55:50;15.85;;;10.07;;
47273;SDS011;33007;49.082;19.306;2022-10-22T00:58:19;17.05;;;10.95;;
47273;SDS011;33007;49.082;19.306;2022-10-22T01:00:47;16.60;;;11.02;;
47273;SDS011;33007;49.082;19.306;2022-10-22T01:03:13;16.90;;;11.13;;
47273;SDS011;33007;49.082;19.306;2022-10-22T01:05:58;18.77;;;10.57;;
47273;SDS011;33007;49.082;19.306;2022-10-22T01:08:29;15.77;;;10.82;;
47273;SDS011;33007;49.082;19.306;2022-10-22T01:13:46;20.85;;;10.70;;
47273;SDS011;33007;49.082;19.306;2022-10-22T01:18:57;14.88;;;10.25;;
47273;SDS011;33007;49.082;19.306;2022-10-22T01:21:45;18.02;;;10.13;;
47273;SDS011;33007;49.082;19.306;2022-10-22T01:29:27;16.20;;;10.02;;
47273;SDS011;33007;49.082;19.306;2022-10-22T01:32:01;17.92;;;10.02;;
47273;SDS011;33007;49.082;19.306;2022-10-22T01:34:32;18.42;;;10.25;;
47273;SDS011;33007;49.082;19.306;2022-10-22T01:37:00;22.85;;;10.80;;
47273;SDS011;33007;49.082;19.306;2022-10-22T01:39:27;15.23;;;10.18;;
47273;SDS011;33007;49.082;19.306;2022-10-22T01:41:55;12.73;;;9.32;;
47273;SDS011;33007;49.082;19.306;2022-10-22T01:49:55;13.52;;;8.75;;
47273;SDS011;33007;49.082;19.306;2022-10-22T01:58:23;13.43;;;8.75;;
47273;SDS011;33007;49.082;19.306;2022-10-22T02:03:45;14.38;;;9.50;;
47273;SDS011;33007;49.082;19.306;2022-10-22T02:06:17;14.35;;;9.73;;
47273;SDS011;33007;49.082;19.306;2022-10-22T02:08:47;15.60;;;9.75;;
47273;SDS011;33007;49.082;19.306;2022-10-22T02:11:15;16.42;;;9.57;;
47273;SDS011;33007;49.082;19.306;2022-10-22T02:13:42;134.35;;;15.02;;
47273;SDS011;33007;49.082;19.306;2022-10-22T02:16:17;12.30;;;9.65;;
47273;SDS011;33007;49.082;19.306;2022-10-22T02:22:04;16.88;;;10.70;;
47273;SDS011;33007;49.082;19.306;2022-10-22T02:24:31;14.95;;;11.05;;
47273;SDS011;33007;49.082;19.306;2022-10-22T02:27:00;15.93;;;12.07;;
47273;SDS011;33007;49.082;19.306;2022-10-22T02:29:51;19.80;;;12.65;;
47273;SDS011;33007;49.082;19.306;2022-10-22T02:35:16;18.70;;;13.07;;
47273;SDS011;33007;49.082;19.306;2022-10-22T02:40:12;34.78;;;14.00;;
47273;SDS011;33007;49.082;19.306;2022-10-22T02:42:38;19.30;;;13.00;;
47273;SDS011;33007;49.082;19.306;2022-10-22T02:45:06;20.20;;;12.98;;
47273;SDS011;33007;49.082;19.306;2022-10-22T02:47:32;19.02;;;13.57;;
47273;SDS011;33007;49.082;19.306;2022-10-22T02:49:57;18.70;;;13.30;;
47273;SDS011;33007;49.082;19.306;2022-10-22T02:52:23;18.92;;;13.73;;
47273;SDS011;33007;49.082;19.306;2022-10-22T02:54:49;17.88;;;13.25;;
47273;SDS011;33007;49.082;19.306;2022-10-22T02:57:14;22.17;;;14.57;;
47273;SDS011;33007;49.082;19.306;2022-10-22T02:59:40;24.30;;;13.98;;
47273;SDS011;33007;49.082;19.306;2022-10-22T03:02:06;19.48;;;13.73;;
47273;SDS011;33007;49.082;19.306;2022-10-22T03:04:32;17.25;;;13.15;;
47273;SDS011;33007;49.082;19.306;2022-10-22T03:06:58;17.95;;;12.88;;
47273;SDS011;33007;49.082;19.306;2022-10-22T03:09:23;19.20;;;13.20;;
47273;SDS011;33007;49.082;19.306;2022-10-22T03:11:49;18.92;;;12.32;;
47273;SDS011;33007;49.082;19.306;2022-10-22T03:14:14;17.73;;;11.82;;
47273;SDS011;33007;49.082;19.306;2022-10-22T03:16:40;20.45;;;11.90;;
47273;SDS011;33007;49.082;19.306;2022-10-22T03:19:06;15.98;;;11.77;;
47273;SDS011;33007;49.082;19.306;2022-10-22T03:21:43;19.98;;;12.48;;
47273;SDS011;33007;49.082;19.306;2022-10-22T03:24:23;19.83;;;12.73;;
47273;SDS011;33007;49.082;19.306;2022-10-22T03:27:00;19.55;;;12.18;;
47273;SDS011;33007;49.082;19.306;2022-10-22T03:29:26;56.17;;;14.50;;
47273;SDS011;33007;49.082;19.306;2022-10-22T03:31:53;22.67;;;12.77;;
47273;SDS011;33007;49.082;19.306;2022-10-22T03:34:19;19.63;;;11.40;;
47273;SDS011;33007;49.082;19.306;2022-10-22T03:36:45;17.33;;;11.13;;
47273;SDS011;33007;49.082;19.306;2022-10-22T03:39:12;18.30;;;10.73;;
47273;SDS011;33007;49.082;19.306;2022-10-22T03:41:40;18.02;;;12.10;;
47273;SDS011;33007;49.082;19.306;2022-10-22T03:44:06;20.30;;;11.38;;
47273;SDS011;33007;49.082;19.306;2022-10-22T03:46:32;17.50;;;11.05;;
47273;SDS011;33007;49.082;19.306;2022-10-22T03:48:57;17.42;;;11.35;;
47273;SDS011;33007;49.082;19.306;2022-10-22T03:51:25;19.05;;;11.30;;
47273;SDS011;33007;49.082;19.306;2022-10-22T03:53:52;17.23;;;11.27;;
47273;SDS011;33007;49.082;19.306;2022-10-22T03:56:17;16.00;;;11.75;;
47273;SDS011;33007;49.082;19.306;2022-10-22T03:58:43;21.63;;;12.27;;
47273;SDS011;33007;49.082;19.306;2022-10-22T04:01:10;18.88;;;11.48;;
47273;SDS011;33007;49.082;19.306;2022-10-22T04:03:37;18.73;;;12.10;;
47273;SDS011;33007;49.082;19.306;2022-10-22T04:06:04;17.23;;;11.57;;
47273;SDS011;33007;49.082;19.306;2022-10-22T04:08:34;20.88;;;12.30;;
47273;SDS011;33007;49.082;19.306;2022-10-22T04:11:00;18.45;;;12.00;;
47273;SDS011;33007;49.082;19.306;2022-10-22T04:13:26;19.48;;;11.68;;
47273;SDS011;33007;49.082;19.306;2022-10-22T04:15:52;17.83;;;12.50;;
47273;SDS011;33007;49.082;19.306;2022-10-22T04:18:18;23.00;;;13.75;;
47273;SDS011;33007;49.082;19.306;2022-10-22T04:20:44;20.15;;;13.45;;
47273;SDS011;33007;49.082;19.306;2022-10-22T04:23:11;21.77;;;13.70;;
47273;SDS011;33007;49.082;19.306;2022-10-22T04:25:36;19.25;;;13.30;;
47273;SDS011;33007;49.082;19.306;2022-10-22T04:28:05;18.77;;;12.73;;
47273;SDS011;33007;49.082;19.306;2022-10-22T04:30:31;20.77;;;12.77;;
47273;SDS011;33007;49.082;19.306;2022-10-22T04:32:57;20.77;;;13.02;;
47273;SDS011;33007;49.082;19.306;2022-10-22T04:35:23;17.20;;;12.90;;
47273;SDS011;33007;49.082;19.306;2022-10-22T04:37:49;19.52;;;13.20;;
47273;SDS011;33007;49.082;19.306;2022-10-22T04:40:14;24.48;;;13.40;;
47273;SDS011;33007;49.082;19.306;2022-10-22T04:42:39;30.30;;;12.48;;
47273;SDS011;33007;49.082;19.306;2022-10-22T04:45:05;18.02;;;11.88;;
47273;SDS011;33007;49.082;19.306;2022-10-22T04:47:31;17.05;;;11.40;;
47273;SDS011;33007;49.082;19.306;2022-10-22T04:49:56;16.98;;;11.65;;
47273;SDS011;33007;49.082;19.306;2022-10-22T04:52:22;18.02;;;12.45;;
47273;SDS011;33007;49.082;19.306;2022-10-22T04:54:48;18.23;;;11.75;;
47273;SDS011;33007;49.082;19.306;2022-10-22T04:57:13;15.93;;;11.02;;
47273;SDS011;33007;49.082;19.306;2022-10-22T04:59:39;14.43;;;10.70;;
47273;SDS011;33007;49.082;19.306;2022-10-22T05:02:05;155.27;;;19.13;;
47273;SDS011;33007;49.082;19.306;2022-10-22T05:04:30;18.08;;;10.85;;
47273;SDS011;33007;49.082;19.306;2022-10-22T05:06:56;16.58;;;11.38;;
47273;SDS011;33007;49.082;19.306;2022-10-22T05:09:22;14.57;;;10.95;;
47273;SDS011;33007;49.082;19.306;2022-10-22T05:11:48;16.45;;;10.43;;
47273;SDS011;33007;49.082;19.306;2022-10-22T05:14:16;15.23;;;10.70;;
47273;SDS011;33007;49.082;19.306;2022-10-22T05:16:45;13.25;;;9.73;;
47273;SDS011;33007;49.082;19.306;2022-10-22T05:19:22;25.83;;;11.10;;
47273;SDS011;33007;49.082;19.306;2022-10-22T05:21:54;15.43;;;10.45;;
47273;SDS011;33007;49.082;19.306;2022-10-22T05:24:22;18.65;;;10.88;;
47273;SDS011;33007;49.082;19.306;2022-10-22T05:26:49;19.55;;;11.63;;
47273;SDS011;33007;49.082;19.306;2022-10-22T05:29:17;16.98;;;12.45;;
47273;SDS011;33007;49.082;19.306;2022-10-22T05:31:43;19.60;;;12.40;;
47273;SDS011;33007;49.082;19.306;2022-10-22T05:34:09;24.13;;;12.35;;
47273;SDS011;33007;49.082;19.306;2022-10-22T05:36:34;20.38;;;12.40;;
47273;SDS011;33007;49.082;19.306;2022-10-22T05:39:00;27.52;;;12.93;;
47273;SDS011;33007;49.082;19.306;2022-10-22T05:41:27;18.65;;;12.95;;
47273;SDS011;33007;49.082;19.306;2022-10-22T05:43:54;18.17;;;12.52;;
47273;SDS011;33007;49.082;19.306;2022-10-22T05:46:21;17.67;;;12.02;;
47273;SDS011;33007;49.082;19.306;2022-10-22T05:48:52;22.13;;;13.25;;
47273;SDS011;33007;49.082;19.306;2022-10-22T05:51:19;22.33;;;13.27;;
47273;SDS011;33007;49.082;19.306;2022-10-22T05:53:49;21.90;;;12.80;;
47273;SDS011;33007;49.082;19.306;2022-10-22T05:56:19;22.00;;;13.75;;
47273;SDS011;33007;49.082;19.306;2022-10-22T05:58:45;21.42;;;14.60;;
47273;SDS011;33007;49.082;19.306;2022-10-22T06:01:13;25.13;;;15.00;;
47273;SDS011;33007;49.082;19.306;2022-10-22T06:03:40;23.20;;;15.38;;
47273;SDS011;33007;49.082;19.306;2022-10-22T06:06:11;25.00;;;14.38;;
47273;SDS011;33007;49.082;19.306;2022-10-22T06:08:51;25.30;;;14.63;;
47273;SDS011;33007;49.082;19.306;2022-10-22T06:11:19;20.77;;;14.38;;
47273;SDS011;33007;49.082;19.306;2022-10-22T06:13:46;21.27;;;14.50;;
47273;SDS011;33007;49.082;19.306;2022-10-22T06:16:12;22.10;;;14.45;;
47273;SDS011;33007;49.082;19.306;2022-10-22T06:18:38;20.10;;;13.40;;
47273;SDS011;33007;49.082;19.306;2022-10-22T06:21:05;21.08;;;14.13;;
47273;SDS011;33007;49.082;19.306;2022-10-22T06:23:32;25.48;;;14.00;;
47273;SDS011;33007;49.082;19.306;2022-10-22T06:25:58;24.20;;;15.50;;
47273;SDS011;33007;49.082;19.306;2022-10-22T06:28:24;22.38;;;15.73;;
47273;SDS011;33007;49.082;19.306;2022-10-22T06:30:50;23.08;;;13.85;;
47273;SDS011;33007;49.082;19.306;2022-10-22T06:33:16;28.58;;;15.15;;
47273;SDS011;33007;49.082;19.306;2022-10-22T06:35:41;23.38;;;14.13;;
47273;SDS011;33007;49.082;19.306;2022-10-22T06:38:07;26.00;;;14.77;;
47273;SDS011;33007;49.082;19.306;2022-10-22T06:40:32;23.55;;;14.25;;
47273;SDS011;33007;49.082;19.306;2022-10-22T06:42:58;23.85;;;13.90;;
47273;SDS011;33007;49.082;19.306;2022-10-22T06:45:24;21.65;;;14.52;;
47273;SDS011;33007;49.082;19.306;2022-10-22T06:47:50;23.90;;;14.20;;
47273;SDS011;33007;49.082;19.306;2022-10-22T06:50:16;29.00;;;14.90;;
47273;SDS011;33007;49.082;19.306;2022-10-22T06:52:42;22.00;;;13.80;;
47273;SDS011;33007;49.082;19.306;2022-10-22T06:55:07;30.98;;;14.98;;
47273;SDS011;33007;49.082;19.306;2022-10-22T06:57:33;25.40;;;14.32;;
47273;SDS011;33007;49.082;19.306;2022-10-22T06:59:59;21.67;;;14.65;;
47273;SDS011;33007;49.082;19.306;2022-10-22T07:02:25;23.38;;;14.30;;
47273;SDS011;33007;49.082;19.306;2022-10-22T07:04:50;24.15;;;14.27;;
47273;SDS011;33007;49.082;19.306;2022-10-22T07:07:16;21.85;;;14.63;;
47273;SDS011;33007;49.082;19.306;2022-10-22T07:09:42;17.08;;;13.18;;
47273;SDS011;33007;49.082;19.306;2022-10-22T07:12:10;21.00;;;13.35;;
47273;SDS011;33007;49.082;19.306;2022-10-22T07:14:37;20.67;;;13.35;;
47273;SDS011;33007;49.082;19.306;2022-10-22T07:17:02;23.02;;;12.75;;
47273;SDS011;33007;49.082;19.306;2022-10-22T07:19:28;21.13;;;12.52;;
47273;SDS011;33007;49.082;19.306;2022-10-22T07:21:54;19.73;;;13.00;;
47273;SDS011;33007;49.082;19.306;2022-10-22T07:24:19;21.63;;;13.35;;
47273;SDS011;33007;49.082;19.306;2022-10-22T07:26:45;22.75;;;12.80;;
47273;SDS011;33007;49.082;19.306;2022-10-22T07:29:10;22.67;;;14.52;;
47273;SDS011;33007;49.082;19.306;2022-10-22T07:31:36;24.75;;;13.23;;
47273;SDS011;33007;49.082;19.306;2022-10-22T07:34:01;23.60;;;13.35;;
47273;SDS011;33007;49.082;19.306;2022-10-22T07:36:26;19.83;;;13.48;;
47273;SDS011;33007;49.082;19.306;2022-10-22T07:38:53;19.15;;;13.73;;
47273;SDS011;33007;49.082;19.306;2022-10-22T07:41:21;19.70;;;13.45;;
47273;SDS011;33007;49.082;19.306;2022-10-22T07:43:47;17.58;;;12.85;;
47273;SDS011;33007;49.082;19.306;2022-10-22T07:46:13;22.45;;;13.27;;
47273;SDS011;33007;49.082;19.306;2022-10-22T07:48:39;22.88;;;14.13;;
47273;SDS011;33007;49.082;19.306;2022-10-22T07:51:05;20.58;;;13.20;;
47273;SDS011;33007;49.082;19.306;2022-10-22T07:53:31;19.67;;;12.30;;
47273;SDS011;33007;49.082;19.306;2022-10-22T07:55:56;16.42;;;12.35;;
47273;SDS011;33007;49.082;19.306;2022-10-22T07:58:22;19.17;;;12.45;;
47273;SDS011;33007;49.082;19.306;2022-10-22T08:00:48;16.30;;;12.32;;
47273;SDS011;33007;49.082;19.306;2022-10-22T08:03:15;20.38;;;12.48;;
47273;SDS011;33007;49.082;19.306;2022-10-22T08:05:42;20.30;;;12.80;;
47273;SDS011;33007;49.082;19.306;2022-10-22T08:08:08;17.00;;;12.75;;
47273;SDS011;33007;49.082;19.306;2022-10-22T08:10:35;21.15;;;12.90;;
47273;SDS011;33007;49.082;19.306;2022-10-22T08:13:00;19.65;;;13.95;;
47273;SDS011;33007;49.082;19.306;2022-10-22T08:15:26;17.75;;;13.45;;
47273;SDS011;33007;49.082;19.306;2022-10-22T08:17:52;17.98;;;13.20;;
47273;SDS011;33007;49.082;19.306;2022-10-22T08:20:18;20.00;;;13.23;;
47273;SDS011;33007;49.082;19.306;2022-10-22T08:22:44;16.35;;;12.75;;
47273;SDS011;33007;49.082;19.306;2022-10-22T08:25:10;18.00;;;12.43;;
47273;SDS011;33007;49.082;19.306;2022-10-22T08:27:36;20.75;;;12.38;;
47273;SDS011;33007;49.082;19.306;2022-10-22T08:30:02;19.58;;;12.27;;
47273;SDS011;33007;49.082;19.306;2022-10-22T08:32:28;24.48;;;12.55;;
47273;SDS011;33007;49.082;19.306;2022-10-22T08:34:54;17.02;;;12.02;;
47273;SDS011;33007;49.082;19.306;2022-10-22T08:37:20;20.13;;;12.10;;
47273;SDS011;33007;49.082;19.306;2022-10-22T08:39:46;18.27;;;13.00;;
47273;SDS011;33007;49.082;19.306;2022-10-22T08:47:21;18.20;;;11.90;;
47273;SDS011;33007;49.082;19.306;2022-10-22T08:50:09;16.95;;;12.98;;
47273;SDS011;33007;49.082;19.306;2022-10-22T08:52:41;17.20;;;12.20;;
47273;SDS011;33007;49.082;19.306;2022-10-22T08:57:49;18.65;;;12.43;;
47273;SDS011;33007;49.082;19.306;2022-10-22T09:00:43;17.73;;;12.53;;
47273;SDS011;33007;49.082;19.306;2022-10-22T09:08:17;18.00;;;12.35;;
47273;SDS011;33007;49.082;19.306;2022-10-22T09:10:46;21.80;;;13.13;;
47273;SDS011;33007;49.082;19.306;2022-10-22T09:13:15;19.38;;;13.63;;
47273;SDS011;33007;49.082;19.306;2022-10-22T09:15:50;20.00;;;13.55;;
47273;SDS011;33007;49.082;19.306;2022-10-22T09:21:16;17.08;;;12.77;;
47273;SDS011;33007;49.082;19.306;2022-10-22T09:26:47;21.30;;;12.82;;
47273;SDS011;33007;49.082;19.306;2022-10-22T09:29:17;17.40;;;11.88;;
47273;SDS011;33007;49.082;19.306;2022-10-22T09:31:48;15.27;;;11.73;;
47273;SDS011;33007;49.082;19.306;2022-10-22T09:34:16;21.00;;;12.15;;
47273;SDS011;33007;49.082;19.306;2022-10-22T09:36:44;18.17;;;12.18;;
47273;SDS011;33007;49.082;19.306;2022-10-22T09:39:32;17.45;;;11.77;;
47273;SDS011;33007;49.082;19.306;2022-10-22T09:41:58;19.58;;;11.88;;
47273;SDS011;33007;49.082;19.306;2022-10-22T09:44:24;20.77;;;12.48;;
47273;SDS011;33007;49.082;19.306;2022-10-22T09:46:50;20.27;;;12.95;;
47273;SDS011;33007;49.082;19.306;2022-10-22T09:49:16;19.33;;;12.43;;
47273;SDS011;33007;49.082;19.306;2022-10-22T09:54:14;18.70;;;12.88;;
47273;SDS011;33007;49.082;19.306;2022-10-22T09:56:50;23.15;;;13.43;;
47273;SDS011;33007;49.082;19.306;2022-10-22T09:59:23;23.00;;;13.52;;
47273;SDS011;33007;49.082;19.306;2022-10-22T10:02:05;22.52;;;13.35;;
47273;SDS011;33007;49.082;19.306;2022-10-22T10:04:34;19.27;;;13.40;;
47273;SDS011;33007;49.082;19.306;2022-10-22T10:09:47;19.67;;;13.57;;
47273;SDS011;33007;49.082;19.306;2022-10-22T10:12:29;22.65;;;14.25;;
47273;SDS011;33007;49.082;19.306;2022-10-22T10:15:23;16.77;;;12.93;;
47273;SDS011;33007;49.082;19.306;2022-10-22T10:18:00;16.42;;;12.65;;
47273;SDS011;33007;49.082;19.306;2022-10-22T10:21:01;17.83;;;12.70;;
47273;SDS011;33007;49.082;19.306;2022-10-22T10:23:47;20.13;;;13.30;;
47273;SDS011;33007;49.082;19.306;2022-10-22T10:34:20;20.15;;;13.07;;
47273;SDS011;33007;49.082;19.306;2022-10-22T10:36:57;22.50;;;13.48;;
47273;SDS011;33007;49.082;19.306;2022-10-22T10:42:39;18.88;;;12.98;;
47273;SDS011;33007;49.082;19.306;2022-10-22T10:50:29;20.65;;;13.27;;
47273;SDS011;33007;49.082;19.306;2022-10-22T10:53:25;18.88;;;12.60;;
47273;SDS011;33007;49.082;19.306;2022-10-22T10:59:21;19.48;;;13.02;;
47273;SDS011;33007;49.082;19.306;2022-10-22T11:07:38;22.00;;;12.73;;
47273;SDS011;33007;49.082;19.306;2022-10-22T11:10:29;19.48;;;12.57;;
47273;SDS011;33007;49.082;19.306;2022-10-22T11:13:05;24.20;;;14.63;;
47273;SDS011;33007;49.082;19.306;2022-10-22T11:15:41;21.23;;;13.23;;
47273;SDS011;33007;49.082;19.306;2022-10-22T11:18:34;20.90;;;13.13;;
47273;SDS011;33007;49.082;19.306;2022-10-22T11:29:51;22.30;;;13.73;;
47273;SDS011;33007;49.082;19.306;2022-10-22T11:32:22;36.38;;;13.88;;
47273;SDS011;33007;49.082;19.306;2022-10-22T11:34:52;21.10;;;14.38;;
47273;SDS011;33007;49.082;19.306;2022-10-22T11:37:21;22.65;;;13.75;;
47273;SDS011;33007;49.082;19.306;2022-10-22T11:39:51;21.77;;;13.55;;
47273;SDS011;33007;49.082;19.306;2022-10-22T11:45:04;21.65;;;13.15;;
47273;SDS011;33007;49.082;19.306;2022-10-22T12:00:57;23.80;;;14.77;;
47273;SDS011;33007;49.082;19.306;2022-10-22T12:06:51;23.33;;;16.88;;
47273;SDS011;33007;49.082;19.306;2022-10-22T12:09:26;23.98;;;16.58;;
47273;SDS011;33007;49.082;19.306;2022-10-22T12:12:12;26.05;;;17.50;;
47273;SDS011;33007;49.082;19.306;2022-10-22T12:14:58;35.80;;;17.95;;
47273;SDS011;33007;49.082;19.306;2022-10-22T12:17:26;30.42;;;20.05;;
47273;SDS011;33007;49.082;19.306;2022-10-22T12:20:00;31.23;;;20.73;;
47273;SDS011;33007;49.082;19.306;2022-10-22T12:22:32;27.02;;;18.77;;
47273;SDS011;33007;49.082;19.306;2022-10-22T12:25:04;27.50;;;18.52;;
47273;SDS011;33007;49.082;19.306;2022-10-22T12:27:39;31.02;;;20.02;;
47273;SDS011;33007;49.082;19.306;2022-10-22T12:30:16;28.30;;;18.77;;
47273;SDS011;33007;49.082;19.306;2022-10-22T12:32:42;29.75;;;19.40;;
47273;SDS011;33007;49.082;19.306;2022-10-22T12:35:10;27.10;;;19.27;;
47273;SDS011;33007;49.082;19.306;2022-10-22T12:37:41;28.85;;;19.13;;
47273;SDS011;33007;49.082;19.306;2022-10-22T12:40:23;39.15;;;20.88;;
47273;SDS011;33007;49.082;19.306;2022-10-22T12:42:52;32.85;;;21.95;;
47273;SDS011;33007;49.082;19.306;2022-10-22T12:45:18;33.17;;;22.80;;
47273;SDS011;33007;49.082;19.306;2022-10-22T12:47:51;28.95;;;21.23;;
47273;SDS011;33007;49.082;19.306;2022-10-22T12:50:22;31.85;;;22.92;;
47273;SDS011;33007;49.082;19.306;2022-10-22T12:52:55;29.05;;;21.70;;
47273;SDS011;33007;49.082;19.306;2022-10-22T12:55:21;29.63;;;21.73;;
47273;SDS011;33007;49.082;19.306;2022-10-22T12:57:49;34.40;;;22.17;;
47273;SDS011;33007;49.082;19.306;2022-10-22T13:00:22;29.02;;;22.35;;
47273;SDS011;33007;49.082;19.306;2022-10-22T13:02:50;29.52;;;21.63;;
47273;SDS011;33007;49.082;19.306;2022-10-22T13:05:21;26.33;;;20.05;;
47273;SDS011;33007;49.082;19.306;2022-10-22T13:08:01;27.85;;;20.13;;
47273;SDS011;33007;49.082;19.306;2022-10-22T13:10:31;27.17;;;17.48;;
47273;SDS011;33007;49.082;19.306;2022-10-22T13:12:58;25.02;;;17.27;;
47273;SDS011;33007;49.082;19.306;2022-10-22T13:20:50;21.95;;;16.02;;
47273;SDS011;33007;49.082;19.306;2022-10-22T13:23:17;22.65;;;15.52;;
47273;SDS011;33007;49.082;19.306;2022-10-22T13:25:55;20.40;;;14.75;;
47273;SDS011;33007;49.082;19.306;2022-10-22T13:28:22;22.05;;;15.18;;
47273;SDS011;33007;49.082;19.306;2022-10-22T13:31:07;24.25;;;15.93;;
47273;SDS011;33007;49.082;19.306;2022-10-22T13:33:37;20.77;;;16.02;;
47273;SDS011;33007;49.082;19.306;2022-10-22T13:36:04;20.90;;;15.52;;
47273;SDS011;33007;49.082;19.306;2022-10-22T13:38:30;23.42;;;15.68;;
47273;SDS011;33007;49.082;19.306;2022-10-22T13:40:56;28.45;;;16.92;;
47273;SDS011;33007;49.082;19.306;2022-10-22T13:43:23;21.70;;;16.63;;
47273;SDS011;33007;49.082;19.306;2022-10-22T13:45:59;23.17;;;16.00;;
47273;SDS011;33007;49.082;19.306;2022-10-22T13:48:25;23.70;;;16.15;;
47273;SDS011;33007;49.082;19.306;2022-10-22T13:50:53;22.70;;;16.88;;
47273;SDS011;33007;49.082;19.306;2022-10-22T13:53:20;25.38;;;17.48;;
47273;SDS011;33007;49.082;19.306;2022-10-22T13:55:48;23.90;;;17.00;;
47273;SDS011;33007;49.082;19.306;2022-10-22T13:58:20;22.58;;;17.20;;
47273;SDS011;33007;49.082;19.306;2022-10-22T14:00:53;24.92;;;17.90;;
47273;SDS011;33007;49.082;19.306;2022-10-22T14:03:23;25.90;;;17.77;;
47273;SDS011;33007;49.082;19.306;2022-10-22T14:05:54;26.63;;;18.77;;
47273;SDS011;33007;49.082;19.306;2022-10-22T14:08:20;25.63;;;19.98;;
47273;SDS011;33007;49.082;19.306;2022-10-22T14:10:48;30.85;;;19.80;;
47273;SDS011;33007;49.082;19.306;2022-10-22T14:13:16;25.15;;;19.38;;
47273;SDS011;33007;49.082;19.306;2022-10-22T14:15:42;28.80;;;19.85;;
47273;SDS011;33007;49.082;19.306;2022-10-22T14:18:11;25.70;;;18.48;;
47273;SDS011;33007;49.082;19.306;2022-10-22T14:20:41;24.17;;;18.13;;
47273;SDS011;33007;49.082;19.306;2022-10-22T14:23:19;24.13;;;18.08;;
47273;SDS011;33007;49.082;19.306;2022-10-22T14:25:46;25.08;;;18.38;;
47273;SDS011;33007;49.082;19.306;2022-10-22T14:28:14;26.48;;;18.27;;
47273;SDS011;33007;49.082;19.306;2022-10-22T14:30:40;60.88;;;21.52;;
47273;SDS011;33007;49.082;19.306;2022-10-22T14:33:48;27.23;;;19.15;;
47273;SDS011;33007;49.082;19.306;2022-10-22T14:35:56;26.92;;;18.40;;
47273;SDS011;33007;49.082;19.306;2022-10-22T14:38:25;25.08;;;18.92;;
47273;SDS011;33007;49.082;19.306;2022-10-22T14:40:51;26.08;;;18.67;;
47273;SDS011;33007;49.082;19.306;2022-10-22T14:45:51;26.27;;;20.17;;
47273;SDS011;33007;49.082;19.306;2022-10-22T14:48:17;29.27;;;21.25;;
47273;SDS011;33007;49.082;19.306;2022-10-22T14:50:43;29.13;;;21.48;;
47273;SDS011;33007;49.082;19.306;2022-10-22T14:53:09;25.33;;;20.58;;
47273;SDS011;33007;49.082;19.306;2022-10-22T14:55:37;27.50;;;20.23;;
47273;SDS011;33007;49.082;19.306;2022-10-22T14:58:03;24.65;;;20.23;;
47273;SDS011;33007;49.082;19.306;2022-10-22T15:00:29;29.00;;;20.00;;
47273;SDS011;33007;49.082;19.306;2022-10-22T15:02:55;24.83;;;19.58;;
47273;SDS011;33007;49.082;19.306;2022-10-22T15:05:21;28.52;;;19.70;;
47273;SDS011;33007;49.082;19.306;2022-10-22T15:07:46;26.13;;;19.58;;
47273;SDS011;33007;49.082;19.306;2022-10-22T15:10:12;24.38;;;18.55;;
47273;SDS011;33007;49.082;19.306;2022-10-22T15:12:38;22.90;;;18.50;;
47273;SDS011;33007;49.082;19.306;2022-10-22T15:15:04;24.10;;;19.63;;
47273;SDS011;33007;49.082;19.306;2022-10-22T15:17:30;23.83;;;19.10;;
47273;SDS011;33007;49.082;19.306;2022-10-22T15:19:56;34.92;;;19.20;;
47273;SDS011;33007;49.082;19.306;2022-10-22T15:22:25;25.52;;;20.02;;
47273;SDS011;33007;49.082;19.306;2022-10-22T15:24:52;22.42;;;18.73;;
47273;SDS011;33007;49.082;19.306;2022-10-22T15:27:18;23.95;;;19.30;;
47273;SDS011;33007;49.082;19.306;2022-10-22T15:29:43;30.05;;;19.30;;
47273;SDS011;33007;49.082;19.306;2022-10-22T15:32:10;29.27;;;19.05;;
47273;SDS011;33007;49.082;19.306;2022-10-22T15:34:36;22.77;;;18.52;;
47273;SDS011;33007;49.082;19.306;2022-10-22T15:37:03;21.30;;;18.35;;
47273;SDS011;33007;49.082;19.306;2022-10-22T15:39:31;25.52;;;18.85;;
47273;SDS011;33007;49.082;19.306;2022-10-22T15:41:57;22.08;;;18.10;;
47273;SDS011;33007;49.082;19.306;2022-10-22T15:44:30;24.50;;;18.67;;
47273;SDS011;33007;49.082;19.306;2022-10-22T15:46:56;28.55;;;19.00;;
47273;SDS011;33007;49.082;19.306;2022-10-22T15:49:23;23.30;;;18.55;;
47273;SDS011;33007;49.082;19.306;2022-10-22T15:51:50;21.80;;;17.65;;
47273;SDS011;33007;49.082;19.306;2022-10-22T15:54:17;26.20;;;18.73;;
47273;SDS011;33007;49.082;19.306;2022-10-22T15:56:45;22.08;;;18.15;;
47273;SDS011;33007;49.082;19.306;2022-10-22T15:59:11;23.33;;;18.27;;
47273;SDS011;33007;49.082;19.306;2022-10-22T16:01:39;21.60;;;18.85;;
47273;SDS011;33007;49.082;19.306;2022-10-22T16:04:05;22.25;;;17.42;;
47273;SDS011;33007;49.082;19.306;2022-10-22T16:06:33;20.83;;;17.20;;
47273;SDS011;33007;49.082;19.306;2022-10-22T16:09:02;24.67;;;18.23;;
47273;SDS011;33007;49.082;19.306;2022-10-22T16:11:30;23.40;;;16.58;;
47273;SDS011;33007;49.082;19.306;2022-10-22T16:13:56;21.95;;;17.77;;
47273;SDS011;33007;49.082;19.306;2022-10-22T16:16:23;28.38;;;18.02;;
47273;SDS011;33007;49.082;19.306;2022-10-22T16:18:51;23.17;;;17.73;;